sensor_id;sensor_type;location;lat;lon;timestamp;P1;durP1;ratioP1;P2;durP2;ratioP2
12308;SDS011;6217;48.150;17.142;2023-09-08T00:02:23;6.60;;;5.97;;
12308;SDS011;6217;48.150;17.142;2023-09-08T00:06:30;6.30;;;5.80;;
12308;SDS011;6217;48.150;17.142;2023-09-08T00:10:36;6.53;;;5.60;;
12308;SDS011;6217;48.150;17.142;2023-09-08T00:14:42;7.20;;;6.15;;
12308;SDS011;6217;48.150;17.142;2023-09-08T00:18:48;11.02;;;7.18;;
12308;SDS011;6217;48.150;17.142;2023-09-08T00:22:55;5.78;;;4.95;;
12308;SDS011;6217;48.150;17.142;2023-09-08T00:27:01;6.30;;;5.70;;
12308;SDS011;6217;48.150;17.142;2023-09-08T00:31:07;6.57;;;5.85;;
12308;SDS011;6217;48.150;17.142;2023-09-08T00:35:12;8.15;;;5.53;;
12308;SDS011;6217;48.150;17.142;2023-09-08T00:39:19;5.05;;;4.57;;
12308;SDS011;6217;48.150;17.142;2023-09-08T00:43:25;7.47;;;5.40;;
12308;SDS011;6217;48.150;17.142;2023-09-08T00:47:31;7.13;;;5.32;;
12308;SDS011;6217;48.150;17.142;2023-09-08T00:51:36;7.18;;;4.90;;
12308;SDS011;6217;48.150;17.142;2023-09-08T00:55:43;7.95;;;5.00;;
12308;SDS011;6217;48.150;17.142;2023-09-08T00:59:50;6.35;;;5.18;;
12308;SDS011;6217;48.150;17.142;2023-09-08T01:03:56;12.82;;;6.40;;
12308;SDS011;6217;48.150;17.142;2023-09-08T01:08:02;6.05;;;5.00;;
12308;SDS011;6217;48.150;17.142;2023-09-08T01:12:09;7.93;;;5.05;;
12308;SDS011;6217;48.150;17.142;2023-09-08T01:16:15;9.40;;;5.28;;
12308;SDS011;6217;48.150;17.142;2023-09-08T01:20:22;5.85;;;4.68;;
12308;SDS011;6217;48.150;17.142;2023-09-08T01:29:17;8.00;;;3.97;;
12308;SDS011;6217;48.150;17.142;2023-09-08T01:33:25;4.32;;;3.92;;
12308;SDS011;6217;48.150;17.142;2023-09-08T01:37:31;5.60;;;4.70;;
12308;SDS011;6217;48.150;17.142;2023-09-08T01:41:37;4.95;;;3.95;;
12308;SDS011;6217;48.150;17.142;2023-09-08T01:45:43;6.13;;;4.22;;
12308;SDS011;6217;48.150;17.142;2023-09-08T01:49:49;7.28;;;4.53;;
12308;SDS011;6217;48.150;17.142;2023-09-08T01:53:55;4.55;;;4.13;;
12308;SDS011;6217;48.150;17.142;2023-09-08T01:58:01;4.32;;;3.92;;
12308;SDS011;6217;48.150;17.142;2023-09-08T02:02:07;7.53;;;3.42;;
12308;SDS011;6217;48.150;17.142;2023-09-08T02:06:13;5.25;;;4.75;;
12308;SDS011;6217;48.150;17.142;2023-09-08T02:10:18;5.13;;;4.22;;
12308;SDS011;6217;48.150;17.142;2023-09-08T02:14:26;6.75;;;4.18;;
12308;SDS011;6217;48.150;17.142;2023-09-08T02:18:33;5.40;;;4.30;;
12308;SDS011;6217;48.150;17.142;2023-09-08T02:22:38;5.68;;;4.53;;
12308;SDS011;6217;48.150;17.142;2023-09-08T02:26:44;5.60;;;3.72;;
12308;SDS011;6217;48.150;17.142;2023-09-08T02:30:51;5.57;;;4.13;;
12308;SDS011;6217;48.150;17.142;2023-09-08T02:34:57;4.35;;;3.67;;
12308;SDS011;6217;48.150;17.142;2023-09-08T02:39:04;6.05;;;4.13;;
12308;SDS011;6217;48.150;17.142;2023-09-08T02:43:10;4.85;;;3.45;;
12308;SDS011;6217;48.150;17.142;2023-09-08T02:47:16;11.90;;;4.40;;
12308;SDS011;6217;48.150;17.142;2023-09-08T02:51:23;5.03;;;3.30;;
12308;SDS011;6217;48.150;17.142;2023-09-08T02:55:30;5.07;;;4.30;;
12308;SDS011;6217;48.150;17.142;2023-09-08T02:59:36;6.60;;;4.72;;
12308;SDS011;6217;48.150;17.142;2023-09-08T03:03:42;4.53;;;3.95;;
12308;SDS011;6217;48.150;17.142;2023-09-08T03:07:49;6.78;;;5.03;;
12308;SDS011;6217;48.150;17.142;2023-09-08T03:11:56;5.28;;;4.55;;
12308;SDS011;6217;48.150;17.142;2023-09-08T03:16:02;8.80;;;5.10;;
12308;SDS011;6217;48.150;17.142;2023-09-08T03:20:10;7.50;;;4.40;;
12308;SDS011;6217;48.150;17.142;2023-09-08T03:24:18;6.60;;;4.00;;
12308;SDS011;6217;48.150;17.142;2023-09-08T03:28:24;8.80;;;3.60;;
12308;SDS011;6217;48.150;17.142;2023-09-08T03:32:31;7.18;;;4.55;;
12308;SDS011;6217;48.150;17.142;2023-09-08T03:36:37;6.38;;;5.47;;
12308;SDS011;6217;48.150;17.142;2023-09-08T03:40:43;6.45;;;5.47;;
12308;SDS011;6217;48.150;17.142;2023-09-08T03:44:49;8.43;;;5.72;;
12308;SDS011;6217;48.150;17.142;2023-09-08T03:48:55;9.25;;;6.32;;
12308;SDS011;6217;48.150;17.142;2023-09-08T03:53:05;11.48;;;5.90;;
12308;SDS011;6217;48.150;17.142;2023-09-08T03:57:13;7.82;;;7.00;;
12308;SDS011;6217;48.150;17.142;2023-09-08T04:01:19;6.82;;;6.05;;
12308;SDS011;6217;48.150;17.142;2023-09-08T04:05:25;7.72;;;6.75;;
12308;SDS011;6217;48.150;17.142;2023-09-08T04:09:31;9.85;;;7.78;;
12308;SDS011;6217;48.150;17.142;2023-09-08T04:13:37;7.60;;;6.35;;
12308;SDS011;6217;48.150;17.142;2023-09-08T04:17:43;7.97;;;6.85;;
12308;SDS011;6217;48.150;17.142;2023-09-08T04:21:49;8.38;;;6.97;;
12308;SDS011;6217;48.150;17.142;2023-09-08T04:25:55;8.90;;;6.18;;
12308;SDS011;6217;48.150;17.142;2023-09-08T04:30:01;8.27;;;6.30;;
12308;SDS011;6217;48.150;17.142;2023-09-08T04:34:07;7.95;;;6.20;;
12308;SDS011;6217;48.150;17.142;2023-09-08T04:38:14;7.50;;;5.68;;
12308;SDS011;6217;48.150;17.142;2023-09-08T04:42:19;8.52;;;4.65;;
12308;SDS011;6217;48.150;17.142;2023-09-08T04:46:26;6.53;;;5.20;;
12308;SDS011;6217;48.150;17.142;2023-09-08T04:50:32;4.38;;;3.95;;
12308;SDS011;6217;48.150;17.142;2023-09-08T04:54:38;7.85;;;4.45;;
12308;SDS011;6217;48.150;17.142;2023-09-08T04:58:45;10.70;;;4.95;;
12308;SDS011;6217;48.150;17.142;2023-09-08T05:02:52;13.65;;;5.43;;
12308;SDS011;6217;48.150;17.142;2023-09-08T05:06:58;6.75;;;4.03;;
12308;SDS011;6217;48.150;17.142;2023-09-08T05:11:04;5.88;;;3.92;;
12308;SDS011;6217;48.150;17.142;2023-09-08T05:15:11;11.60;;;4.57;;
12308;SDS011;6217;48.150;17.142;2023-09-08T05:19:23;15.13;;;5.28;;
12308;SDS011;6217;48.150;17.142;2023-09-08T05:23:30;9.00;;;4.65;;
12308;SDS011;6217;48.150;17.142;2023-09-08T05:27:36;8.60;;;5.20;;
12308;SDS011;6217;48.150;17.142;2023-09-08T05:31:42;6.25;;;4.88;;
12308;SDS011;6217;48.150;17.142;2023-09-08T05:35:49;7.85;;;4.72;;
12308;SDS011;6217;48.150;17.142;2023-09-08T05:39:55;7.75;;;3.72;;
12308;SDS011;6217;48.150;17.142;2023-09-08T05:44:01;4.95;;;4.07;;
12308;SDS011;6217;48.150;17.142;2023-09-08T05:48:07;9.88;;;4.70;;
12308;SDS011;6217;48.150;17.142;2023-09-08T05:52:13;8.93;;;5.45;;
12308;SDS011;6217;48.150;17.142;2023-09-08T05:56:23;8.55;;;4.35;;
12308;SDS011;6217;48.150;17.142;2023-09-08T06:00:34;6.40;;;5.28;;
12308;SDS011;6217;48.150;17.142;2023-09-08T06:04:41;7.07;;;4.50;;
12308;SDS011;6217;48.150;17.142;2023-09-08T06:08:48;8.60;;;4.85;;
12308;SDS011;6217;48.150;17.142;2023-09-08T06:12:54;7.57;;;4.00;;
12308;SDS011;6217;48.150;17.142;2023-09-08T06:17:00;7.65;;;4.65;;
12308;SDS011;6217;48.150;17.142;2023-09-08T06:21:06;6.15;;;3.85;;
12308;SDS011;6217;48.150;17.142;2023-09-08T06:25:13;6.28;;;3.58;;
12308;SDS011;6217;48.150;17.142;2023-09-08T06:29:20;8.95;;;4.05;;
12308;SDS011;6217;48.150;17.142;2023-09-08T06:33:26;8.10;;;4.47;;
12308;SDS011;6217;48.150;17.142;2023-09-08T06:37:36;4.85;;;4.10;;
12308;SDS011;6217;48.150;17.142;2023-09-08T06:41:45;6.28;;;3.83;;
12308;SDS011;6217;48.150;17.142;2023-09-08T06:45:53;9.45;;;3.92;;
12308;SDS011;6217;48.150;17.142;2023-09-08T06:50:03;8.57;;;4.15;;
12308;SDS011;6217;48.150;17.142;2023-09-08T06:54:09;3.75;;;3.33;;
12308;SDS011;6217;48.150;17.142;2023-09-08T06:58:18;6.43;;;3.60;;
12308;SDS011;6217;48.150;17.142;2023-09-08T07:02:26;10.85;;;4.55;;
12308;SDS011;6217;48.150;17.142;2023-09-08T07:06:32;5.88;;;3.72;;
12308;SDS011;6217;48.150;17.142;2023-09-08T07:10:40;4.15;;;3.33;;
12308;SDS011;6217;48.150;17.142;2023-09-08T07:14:46;6.13;;;3.70;;
12308;SDS011;6217;48.150;17.142;2023-09-08T07:18:53;5.45;;;3.72;;
12308;SDS011;6217;48.150;17.142;2023-09-08T07:22:59;3.38;;;3.08;;
12308;SDS011;6217;48.150;17.142;2023-09-08T07:27:05;5.13;;;3.90;;
12308;SDS011;6217;48.150;17.142;2023-09-08T07:31:12;5.75;;;4.10;;
12308;SDS011;6217;48.150;17.142;2023-09-08T07:35:21;4.50;;;3.45;;
12308;SDS011;6217;48.150;17.142;2023-09-08T07:39:29;7.28;;;3.15;;
12308;SDS011;6217;48.150;17.142;2023-09-08T07:43:35;8.38;;;3.35;;
12308;SDS011;6217;48.150;17.142;2023-09-08T07:47:47;3.90;;;2.90;;
12308;SDS011;6217;48.150;17.142;2023-09-08T07:51:53;6.18;;;3.60;;
12308;SDS011;6217;48.150;17.142;2023-09-08T07:55:59;4.25;;;3.38;;
12308;SDS011;6217;48.150;17.142;2023-09-08T08:00:05;6.28;;;3.83;;
12308;SDS011;6217;48.150;17.142;2023-09-08T08:04:17;12.13;;;4.40;;
12308;SDS011;6217;48.150;17.142;2023-09-08T08:08:23;6.25;;;4.28;;
12308;SDS011;6217;48.150;17.142;2023-09-08T08:12:28;7.30;;;4.55;;
12308;SDS011;6217;48.150;17.142;2023-09-08T08:16:34;5.55;;;4.88;;
12308;SDS011;6217;48.150;17.142;2023-09-08T08:20:41;7.07;;;4.38;;
12308;SDS011;6217;48.150;17.142;2023-09-08T08:24:47;8.40;;;4.05;;
12308;SDS011;6217;48.150;17.142;2023-09-08T08:28:53;6.40;;;4.22;;
12308;SDS011;6217;48.150;17.142;2023-09-08T08:32:58;5.63;;;3.72;;
12308;SDS011;6217;48.150;17.142;2023-09-08T08:37:04;9.40;;;4.03;;
12308;SDS011;6217;48.150;17.142;2023-09-08T08:41:10;5.03;;;4.45;;
12308;SDS011;6217;48.150;17.142;2023-09-08T08:45:16;5.78;;;4.10;;
12308;SDS011;6217;48.150;17.142;2023-09-08T08:49:26;5.03;;;4.32;;
12308;SDS011;6217;48.150;17.142;2023-09-08T08:53:34;5.78;;;3.95;;
12308;SDS011;6217;48.150;17.142;2023-09-08T08:57:43;6.75;;;4.70;;
12308;SDS011;6217;48.150;17.142;2023-09-08T09:01:49;9.55;;;3.47;;
12308;SDS011;6217;48.150;17.142;2023-09-08T09:05:55;6.70;;;4.30;;
12308;SDS011;6217;48.150;17.142;2023-09-08T09:10:02;5.53;;;3.78;;
12308;SDS011;6217;48.150;17.142;2023-09-08T09:14:09;4.90;;;4.50;;
12308;SDS011;6217;48.150;17.142;2023-09-08T09:18:15;4.20;;;3.80;;
12308;SDS011;6217;48.150;17.142;2023-09-08T09:22:21;6.45;;;4.38;;
12308;SDS011;6217;48.150;17.142;2023-09-08T09:26:27;9.43;;;4.38;;
12308;SDS011;6217;48.150;17.142;2023-09-08T09:30:46;8.65;;;4.45;;
12308;SDS011;6217;48.150;17.142;2023-09-08T09:34:57;5.43;;;3.97;;
12308;SDS011;6217;48.150;17.142;2023-09-08T09:39:06;9.93;;;4.70;;
12308;SDS011;6217;48.150;17.142;2023-09-08T09:43:12;4.68;;;4.25;;
12308;SDS011;6217;48.150;17.142;2023-09-08T09:47:19;8.45;;;4.25;;
12308;SDS011;6217;48.150;17.142;2023-09-08T09:51:25;15.98;;;4.68;;
12308;SDS011;6217;48.150;17.142;2023-09-08T09:55:31;6.25;;;4.05;;
12308;SDS011;6217;48.150;17.142;2023-09-08T09:59:40;6.22;;;3.47;;
12308;SDS011;6217;48.150;17.142;2023-09-08T10:03:46;7.97;;;3.42;;
12308;SDS011;6217;48.150;17.142;2023-09-08T10:07:53;6.10;;;3.95;;
12308;SDS011;6217;48.150;17.142;2023-09-08T10:12:02;5.55;;;3.15;;
12308;SDS011;6217;48.150;17.142;2023-09-08T10:16:10;4.85;;;3.55;;
12308;SDS011;6217;48.150;17.142;2023-09-08T10:20:18;8.50;;;3.85;;
12308;SDS011;6217;48.150;17.142;2023-09-08T10:24:28;8.30;;;3.97;;
12308;SDS011;6217;48.150;17.142;2023-09-08T10:28:39;3.38;;;2.85;;
12308;SDS011;6217;48.150;17.142;2023-09-08T10:32:45;4.88;;;2.55;;
12308;SDS011;6217;48.150;17.142;2023-09-08T10:36:52;4.07;;;3.50;;
12308;SDS011;6217;48.150;17.142;2023-09-08T10:41:31;6.35;;;3.22;;
12308;SDS011;6217;48.150;17.142;2023-09-08T10:45:33;5.60;;;2.92;;
12308;SDS011;6217;48.150;17.142;2023-09-08T10:49:40;7.53;;;2.45;;
12308;SDS011;6217;48.150;17.142;2023-09-08T10:53:46;4.90;;;2.78;;
12308;SDS011;6217;48.150;17.142;2023-09-08T10:57:58;5.90;;;2.92;;
12308;SDS011;6217;48.150;17.142;2023-09-08T11:02:04;5.15;;;2.55;;
12308;SDS011;6217;48.150;17.142;2023-09-08T11:06:10;5.57;;;3.63;;
12308;SDS011;6217;48.150;17.142;2023-09-08T11:10:16;7.90;;;3.40;;
12308;SDS011;6217;48.150;17.142;2023-09-08T11:14:22;6.35;;;2.90;;
12308;SDS011;6217;48.150;17.142;2023-09-08T11:18:33;16.30;;;3.55;;
12308;SDS011;6217;48.150;17.142;2023-09-08T11:22:39;4.50;;;3.50;;
12308;SDS011;6217;48.150;17.142;2023-09-08T11:26:46;6.03;;;3.25;;
12308;SDS011;6217;48.150;17.142;2023-09-08T11:30:55;6.93;;;3.17;;
12308;SDS011;6217;48.150;17.142;2023-09-08T11:35:10;3.97;;;2.60;;
12308;SDS011;6217;48.150;17.142;2023-09-08T11:39:18;3.70;;;2.92;;
12308;SDS011;6217;48.150;17.142;2023-09-08T11:43:28;7.32;;;2.90;;
12308;SDS011;6217;48.150;17.142;2023-09-08T11:47:39;10.23;;;3.17;;
12308;SDS011;6217;48.150;17.142;2023-09-08T11:51:49;3.47;;;2.33;;
12308;SDS011;6217;48.150;17.142;2023-09-08T11:55:55;4.30;;;2.60;;
12308;SDS011;6217;48.150;17.142;2023-09-08T12:00:01;5.65;;;2.53;;
12308;SDS011;6217;48.150;17.142;2023-09-08T12:04:20;3.67;;;2.67;;
12308;SDS011;6217;48.150;17.142;2023-09-08T12:08:26;7.15;;;3.67;;
12308;SDS011;6217;48.150;17.142;2023-09-08T12:12:45;2.90;;;2.20;;
12308;SDS011;6217;48.150;17.142;2023-09-08T12:17:04;3.15;;;2.25;;
12308;SDS011;6217;48.150;17.142;2023-09-08T12:21:13;6.65;;;2.50;;
12308;SDS011;6217;48.150;17.142;2023-09-08T12:25:19;5.60;;;2.95;;
12308;SDS011;6217;48.150;17.142;2023-09-08T12:29:25;5.10;;;3.58;;
12308;SDS011;6217;48.150;17.142;2023-09-08T12:33:33;10.13;;;2.75;;
12308;SDS011;6217;48.150;17.142;2023-09-08T12:37:40;9.13;;;2.85;;
12308;SDS011;6217;48.150;17.142;2023-09-08T12:41:46;6.72;;;2.10;;
12308;SDS011;6217;48.150;17.142;2023-09-08T12:45:52;2.58;;;2.10;;
12308;SDS011;6217;48.150;17.142;2023-09-08T12:49:58;3.42;;;2.33;;
12308;SDS011;6217;48.150;17.142;2023-09-08T12:54:04;4.72;;;2.25;;
12308;SDS011;6217;48.150;17.142;2023-09-08T12:58:10;11.25;;;2.13;;
12308;SDS011;6217;48.150;17.142;2023-09-08T13:02:16;4.43;;;2.05;;
12308;SDS011;6217;48.150;17.142;2023-09-08T13:06:22;7.32;;;2.00;;
12308;SDS011;6217;48.150;17.142;2023-09-08T13:10:28;7.78;;;2.00;;
12308;SDS011;6217;48.150;17.142;2023-09-08T13:14:36;4.32;;;1.80;;
12308;SDS011;6217;48.150;17.142;2023-09-08T13:18:42;5.78;;;2.30;;
12308;SDS011;6217;48.150;17.142;2023-09-08T13:22:50;4.85;;;2.75;;
12308;SDS011;6217;48.150;17.142;2023-09-08T13:26:56;11.25;;;2.00;;
12308;SDS011;6217;48.150;17.142;2023-09-08T13:31:02;2.47;;;1.73;;
12308;SDS011;6217;48.150;17.142;2023-09-08T13:35:08;2.10;;;1.90;;
12308;SDS011;6217;48.150;17.142;2023-09-08T13:39:14;3.00;;;2.20;;
12308;SDS011;6217;48.150;17.142;2023-09-08T13:43:20;3.63;;;2.00;;
12308;SDS011;6217;48.150;17.142;2023-09-08T13:47:28;3.97;;;1.90;;
12308;SDS011;6217;48.150;17.142;2023-09-08T13:51:34;4.05;;;1.80;;
12308;SDS011;6217;48.150;17.142;2023-09-08T13:55:40;3.08;;;2.10;;
12308;SDS011;6217;48.150;17.142;2023-09-08T13:59:46;5.25;;;2.00;;
12308;SDS011;6217;48.150;17.142;2023-09-08T14:03:52;1.88;;;1.67;;
12308;SDS011;6217;48.150;17.142;2023-09-08T14:07:58;3.00;;;1.70;;
12308;SDS011;6217;48.150;17.142;2023-09-08T14:12:06;4.03;;;1.85;;
12308;SDS011;6217;48.150;17.142;2023-09-08T14:16:12;3.70;;;1.80;;
12308;SDS011;6217;48.150;17.142;2023-09-08T14:20:18;3.00;;;2.20;;
12308;SDS011;6217;48.150;17.142;2023-09-08T14:24:24;3.45;;;2.00;;
12308;SDS011;6217;48.150;17.142;2023-09-08T14:28:30;3.80;;;2.65;;
12308;SDS011;6217;48.150;17.142;2023-09-08T14:32:39;3.35;;;2.05;;
12308;SDS011;6217;48.150;17.142;2023-09-08T14:36:45;2.85;;;1.92;;
12308;SDS011;6217;48.150;17.142;2023-09-08T14:41:00;3.97;;;1.90;;
12308;SDS011;6217;48.150;17.142;2023-09-08T14:45:07;2.30;;;2.10;;
12308;SDS011;6217;48.150;17.142;2023-09-08T14:49:14;2.30;;;2.10;;
12308;SDS011;6217;48.150;17.142;2023-09-08T14:53:20;9.30;;;2.53;;
12308;SDS011;6217;48.150;17.142;2023-09-08T14:57:26;5.20;;;2.03;;
12308;SDS011;6217;48.150;17.142;2023-09-08T15:01:32;2.55;;;2.28;;
12308;SDS011;6217;48.150;17.142;2023-09-08T15:05:38;3.25;;;2.03;;
12308;SDS011;6217;48.150;17.142;2023-09-08T15:09:44;3.17;;;2.13;;
12308;SDS011;6217;48.150;17.142;2023-09-08T15:13:50;5.15;;;2.42;;
12308;SDS011;6217;48.150;17.142;2023-09-08T15:17:55;3.33;;;1.95;;
12308;SDS011;6217;48.150;17.142;2023-09-08T15:22:01;5.63;;;1.80;;
12308;SDS011;6217;48.150;17.142;2023-09-08T15:26:07;2.25;;;2.03;;
12308;SDS011;6217;48.150;17.142;2023-09-08T15:30:13;3.15;;;2.30;;
12308;SDS011;6217;48.150;17.142;2023-09-08T15:34:20;5.68;;;2.17;;
12308;SDS011;6217;48.150;17.142;2023-09-08T15:38:25;2.60;;;2.22;;
12308;SDS011;6217;48.150;17.142;2023-09-08T15:42:31;8.40;;;2.20;;
12308;SDS011;6217;48.150;17.142;2023-09-08T15:46:37;5.13;;;2.05;;
12308;SDS011;6217;48.150;17.142;2023-09-08T15:50:43;4.85;;;2.50;;
12308;SDS011;6217;48.150;17.142;2023-09-08T15:54:49;5.90;;;2.88;;
12308;SDS011;6217;48.150;17.142;2023-09-08T15:58:55;3.58;;;2.53;;
12308;SDS011;6217;48.150;17.142;2023-09-08T16:03:02;3.55;;;2.10;;
12308;SDS011;6217;48.150;17.142;2023-09-08T16:07:09;4.05;;;2.00;;
12308;SDS011;6217;48.150;17.142;2023-09-08T16:11:15;4.20;;;2.50;;
12308;SDS011;6217;48.150;17.142;2023-09-08T16:15:21;3.63;;;2.50;;
12308;SDS011;6217;48.150;17.142;2023-09-08T16:19:26;2.78;;;2.25;;
12308;SDS011;6217;48.150;17.142;2023-09-08T16:23:33;3.03;;;2.53;;
12308;SDS011;6217;48.150;17.142;2023-09-08T16:27:39;3.30;;;2.28;;
12308;SDS011;6217;48.150;17.142;2023-09-08T16:31:45;3.55;;;2.50;;
12308;SDS011;6217;48.150;17.142;2023-09-08T16:35:53;7.05;;;3.30;;
12308;SDS011;6217;48.150;17.142;2023-09-08T16:39:59;4.47;;;2.55;;
12308;SDS011;6217;48.150;17.142;2023-09-08T16:44:05;2.50;;;2.30;;
12308;SDS011;6217;48.150;17.142;2023-09-08T16:48:11;3.10;;;2.80;;
12308;SDS011;6217;48.150;17.142;2023-09-08T16:52:18;3.08;;;2.45;;
12308;SDS011;6217;48.150;17.142;2023-09-08T16:56:27;7.32;;;3.22;;
12308;SDS011;6217;48.150;17.142;2023-09-08T17:00:32;6.38;;;2.78;;
12308;SDS011;6217;48.150;17.142;2023-09-08T17:04:38;4.72;;;3.10;;
12308;SDS011;6217;48.150;17.142;2023-09-08T17:08:49;5.93;;;3.00;;
12308;SDS011;6217;48.150;17.142;2023-09-08T17:12:55;10.32;;;3.45;;
12308;SDS011;6217;48.150;17.142;2023-09-08T17:17:01;5.63;;;3.78;;
12308;SDS011;6217;48.150;17.142;2023-09-08T17:21:07;5.13;;;3.65;;
12308;SDS011;6217;48.150;17.142;2023-09-08T17:25:13;7.03;;;3.63;;
12308;SDS011;6217;48.150;17.142;2023-09-08T17:29:19;8.15;;;3.17;;
12308;SDS011;6217;48.150;17.142;2023-09-08T17:33:25;7.90;;;3.63;;
12308;SDS011;6217;48.150;17.142;2023-09-08T17:37:31;6.07;;;3.45;;
12308;SDS011;6217;48.150;17.142;2023-09-08T17:41:37;3.38;;;2.97;;
12308;SDS011;6217;48.150;17.142;2023-09-08T17:45:44;8.07;;;3.58;;
12308;SDS011;6217;48.150;17.142;2023-09-08T17:49:50;9.77;;;3.30;;
12308;SDS011;6217;48.150;17.142;2023-09-08T17:53:56;4.45;;;2.92;;
12308;SDS011;6217;48.150;17.142;2023-09-08T17:58:02;4.43;;;3.67;;
12308;SDS011;6217;48.150;17.142;2023-09-08T18:02:08;3.45;;;2.92;;
12308;SDS011;6217;48.150;17.142;2023-09-08T18:06:14;9.85;;;3.00;;
12308;SDS011;6217;48.150;17.142;2023-09-08T18:10:20;8.07;;;3.35;;
12308;SDS011;6217;48.150;17.142;2023-09-08T18:14:26;5.85;;;3.42;;
12308;SDS011;6217;48.150;17.142;2023-09-08T18:18:32;6.65;;;3.38;;
12308;SDS011;6217;48.150;17.142;2023-09-08T18:22:38;5.25;;;4.13;;
12308;SDS011;6217;48.150;17.142;2023-09-08T18:26:44;6.25;;;3.90;;
12308;SDS011;6217;48.150;17.142;2023-09-08T18:30:50;6.45;;;3.83;;
12308;SDS011;6217;48.150;17.142;2023-09-08T18:34:57;5.65;;;3.60;;
12308;SDS011;6217;48.150;17.142;2023-09-08T18:39:03;5.57;;;4.43;;
12308;SDS011;6217;48.150;17.142;2023-09-08T18:43:09;8.05;;;4.07;;
12308;SDS011;6217;48.150;17.142;2023-09-08T18:47:15;7.00;;;3.92;;
12308;SDS011;6217;48.150;17.142;2023-09-08T18:51:21;6.93;;;4.78;;
12308;SDS011;6217;48.150;17.142;2023-09-08T18:55:27;7.97;;;4.78;;
12308;SDS011;6217;48.150;17.142;2023-09-08T18:59:33;8.90;;;6.40;;
12308;SDS011;6217;48.150;17.142;2023-09-08T19:03:39;11.85;;;5.40;;
12308;SDS011;6217;48.150;17.142;2023-09-08T19:07:47;8.30;;;5.45;;
12308;SDS011;6217;48.150;17.142;2023-09-08T19:11:53;7.22;;;5.15;;
12308;SDS011;6217;48.150;17.142;2023-09-08T19:15:59;7.50;;;5.40;;
12308;SDS011;6217;48.150;17.142;2023-09-08T19:20:05;9.18;;;5.90;;
12308;SDS011;6217;48.150;17.142;2023-09-08T19:24:12;9.20;;;5.07;;
12308;SDS011;6217;48.150;17.142;2023-09-08T19:28:19;10.25;;;5.03;;
12308;SDS011;6217;48.150;17.142;2023-09-08T19:32:25;12.00;;;6.82;;
12308;SDS011;6217;48.150;17.142;2023-09-08T19:36:31;8.10;;;5.07;;
12308;SDS011;6217;48.150;17.142;2023-09-08T19:40:36;8.00;;;6.00;;
12308;SDS011;6217;48.150;17.142;2023-09-08T19:44:43;12.57;;;5.50;;
12308;SDS011;6217;48.150;17.142;2023-09-08T19:48:49;7.20;;;5.35;;
12308;SDS011;6217;48.150;17.142;2023-09-08T19:52:55;8.82;;;5.32;;
12308;SDS011;6217;48.150;17.142;2023-09-08T19:57:02;9.50;;;6.00;;
12308;SDS011;6217;48.150;17.142;2023-09-08T20:01:09;9.02;;;6.47;;
12308;SDS011;6217;48.150;17.142;2023-09-08T20:05:21;10.48;;;6.78;;
12308;SDS011;6217;48.150;17.142;2023-09-08T20:09:30;11.88;;;8.90;;
12308;SDS011;6217;48.150;17.142;2023-09-08T20:13:37;11.38;;;8.25;;
12308;SDS011;6217;48.150;17.142;2023-09-08T20:17:42;10.85;;;8.73;;
12308;SDS011;6217;48.150;17.142;2023-09-08T20:21:50;13.38;;;8.45;;
12308;SDS011;6217;48.150;17.142;2023-09-08T20:25:59;14.20;;;8.60;;
12308;SDS011;6217;48.150;17.142;2023-09-08T20:30:05;18.05;;;11.45;;
12308;SDS011;6217;48.150;17.142;2023-09-08T20:34:12;17.80;;;11.48;;
12308;SDS011;6217;48.150;17.142;2023-09-08T20:38:21;18.83;;;12.45;;
12308;SDS011;6217;48.150;17.142;2023-09-08T20:42:27;20.05;;;12.50;;
12308;SDS011;6217;48.150;17.142;2023-09-08T20:46:33;13.48;;;11.98;;
12308;SDS011;6217;48.150;17.142;2023-09-08T20:50:39;18.02;;;12.63;;
12308;SDS011;6217;48.150;17.142;2023-09-08T20:54:45;16.45;;;12.18;;
12308;SDS011;6217;48.150;17.142;2023-09-08T20:58:51;15.13;;;12.77;;
12308;SDS011;6217;48.150;17.142;2023-09-08T21:02:56;12.98;;;10.63;;
12308;SDS011;6217;48.150;17.142;2023-09-08T21:07:02;12.52;;;10.88;;
12308;SDS011;6217;48.150;17.142;2023-09-08T21:11:08;16.73;;;11.82;;
12308;SDS011;6217;48.150;17.142;2023-09-08T21:15:15;12.85;;;11.48;;
12308;SDS011;6217;48.150;17.142;2023-09-08T21:19:21;14.98;;;10.07;;
12308;SDS011;6217;48.150;17.142;2023-09-08T21:23:27;13.65;;;9.43;;
12308;SDS011;6217;48.150;17.142;2023-09-08T21:27:33;14.18;;;10.25;;
12308;SDS011;6217;48.150;17.142;2023-09-08T21:31:39;14.13;;;9.82;;
12308;SDS011;6217;48.150;17.142;2023-09-08T21:35:45;14.73;;;10.30;;
12308;SDS011;6217;48.150;17.142;2023-09-08T21:39:51;12.77;;;9.85;;
12308;SDS011;6217;48.150;17.142;2023-09-08T21:43:57;17.38;;;10.95;;
12308;SDS011;6217;48.150;17.142;2023-09-08T21:48:03;13.30;;;8.75;;
12308;SDS011;6217;48.150;17.142;2023-09-08T21:52:09;16.05;;;10.27;;
12308;SDS011;6217;48.150;17.142;2023-09-08T21:56:15;13.80;;;8.80;;
12308;SDS011;6217;48.150;17.142;2023-09-08T22:00:21;13.68;;;7.88;;
12308;SDS011;6217;48.150;17.142;2023-09-08T22:04:40;15.02;;;9.60;;
12308;SDS011;6217;48.150;17.142;2023-09-08T22:08:46;16.15;;;8.32;;
12308;SDS011;6217;48.150;17.142;2023-09-08T22:12:52;10.52;;;8.55;;
12308;SDS011;6217;48.150;17.142;2023-09-08T22:16:58;12.95;;;7.55;;
12308;SDS011;6217;48.150;17.142;2023-09-08T22:21:05;10.02;;;7.15;;
12308;SDS011;6217;48.150;17.142;2023-09-08T22:25:12;7.30;;;6.38;;
12308;SDS011;6217;48.150;17.142;2023-09-08T22:29:19;12.77;;;7.82;;
12308;SDS011;6217;48.150;17.142;2023-09-08T22:33:27;10.15;;;8.27;;
12308;SDS011;6217;48.150;17.142;2023-09-08T22:37:34;23.40;;;9.57;;
12308;SDS011;6217;48.150;17.142;2023-09-08T22:41:42;9.73;;;8.38;;
12308;SDS011;6217;48.150;17.142;2023-09-08T22:45:48;10.05;;;9.00;;
12308;SDS011;6217;48.150;17.142;2023-09-08T22:49:54;13.75;;;10.63;;
12308;SDS011;6217;48.150;17.142;2023-09-08T22:54:05;16.27;;;11.18;;
12308;SDS011;6217;48.150;17.142;2023-09-08T22:58:14;12.30;;;9.13;;
12308;SDS011;6217;48.150;17.142;2023-09-08T23:02:20;14.10;;;8.95;;
12308;SDS011;6217;48.150;17.142;2023-09-08T23:06:26;12.85;;;10.27;;
12308;SDS011;6217;48.150;17.142;2023-09-08T23:10:32;12.27;;;10.10;;
12308;SDS011;6217;48.150;17.142;2023-09-08T23:14:39;14.68;;;11.98;;
12308;SDS011;6217;48.150;17.142;2023-09-08T23:18:46;16.77;;;12.10;;
12308;SDS011;6217;48.150;17.142;2023-09-08T23:22:52;11.65;;;10.35;;
12308;SDS011;6217;48.150;17.142;2023-09-08T23:26:58;20.50;;;11.75;;
12308;SDS011;6217;48.150;17.142;2023-09-08T23:31:04;13.10;;;9.88;;
12308;SDS011;6217;48.150;17.142;2023-09-08T23:35:10;9.75;;;8.20;;
12308;SDS011;6217;48.150;17.142;2023-09-08T23:39:16;18.88;;;6.63;;
12308;SDS011;6217;48.150;17.142;2023-09-08T23:43:23;10.73;;;7.25;;
12308;SDS011;6217;48.150;17.142;2023-09-08T23:47:29;9.68;;;7.10;;
12308;SDS011;6217;48.150;17.142;2023-09-08T23:51:35;10.35;;;7.13;;
12308;SDS011;6217;48.150;17.142;2023-09-08T23:55:41;7.15;;;6.45;;
12308;SDS011;6217;48.150;17.142;2023-09-08T23:59:47;7.45;;;6.10;;
